Time;durP1;ratioP1;P1;durP2;ratioP2;P2;SDS_P1;SDS_P2;PMS_P1;PMS_P2;Temp;Humidity;BMP_temperature;BMP_pressure;BME280_temperature;BME280_humidity;BME280_pressure;Samples;Min_cycle;Max_cycle;Signal;HPM_P1;HPM_P2
2023/04/07 00:08:35;;;;;;;1.60;0.83;;;;;;;6.56;100.00;97719.34;18297551;32;20399;-57
2023/04/07 00:18:37;;;;;;;1.97;0.90;;;;;;;6.23;100.00;97715.53;18298197;32;20058;-58
2023/04/07 00:28:40;;;;;;;3.43;1.00;;;;;;;6.10;100.00;97722.03;18296238;32;20061;-57
2023/04/07 00:38:42;;;;;;;4.90;2.67;;;;;;;6.15;100.00;97729.34;18295998;32;20481;-56
2023/04/07 00:48:44;;;;;;;2.87;2.00;;;;;;;6.25;100.00;97711.56;18282434;32;20047;-56
2023/04/07 00:58:47;;;;;;;2.77;1.80;;;;;;;6.23;100.00;97697.53;18295304;32;20404;-57
2023/04/07 01:09:01;;;;;;;2.67;1.93;;;;;;;6.16;100.00;97685.34;18281163;32;20459;-57
2023/04/07 01:19:12;;;;;;;2.60;1.63;;;;;;;5.77;100.00;97673.31;18294692;32;20126;-57
2023/04/07 01:29:36;;;;;;;1.60;1.07;;;;;;;5.73;100.00;97656.06;18294165;32;20095;-56
2023/04/07 01:39:39;;;;;;;2.20;1.50;;;;;;;5.83;100.00;97658.12;18302444;32;20085;-57
2023/04/07 01:49:43;;;;;;;2.60;1.53;;;;;;;5.93;100.00;97638.72;18304743;32;20050;-58
2023/04/07 01:59:45;;;;;;;1.83;1.37;;;;;;;5.94;100.00;97613.53;18290104;32;20339;-57
2023/04/07 02:09:50;;;;;;;2.20;1.10;;;;;;;5.92;100.00;97603.03;18303890;32;20058;-56
2023/04/07 02:19:55;;;;;;;1.40;1.13;;;;;;;5.85;100.00;97582.75;18303270;32;20094;-57
2023/04/07 02:29:57;;;;;;;2.12;1.10;;;;;;;5.71;100.00;97566.97;18302537;32;20066;-57
2023/04/07 02:40:00;;;;;;;1.50;1.00;;;;;;;5.66;100.00;97549.97;18235036;32;20096;-57
2023/04/07 02:50:03;;;;;;;3.93;1.20;;;;;;;5.53;100.00;97559.94;18235342;32;20106;-56
2023/04/07 03:00:06;;;;;;;2.53;1.27;;;;;;;5.47;100.00;97558.22;18234897;32;20099;-55
2023/04/07 03:10:09;;;;;;;1.67;1.10;;;;;;;5.44;100.00;97561.37;18234277;32;20046;-57
2023/04/07 03:20:12;;;;;;;3.30;1.17;;;;;;;5.36;100.00;97553.72;18234252;32;20077;-56
2023/04/07 03:30:15;;;;;;;1.70;1.20;;;;;;;5.32;100.00;97537.28;18234208;32;20051;-57
2023/04/07 03:40:17;;;;;;;2.97;1.40;;;;;;;5.21;100.00;97517.53;18288791;32;20081;-57
2023/04/07 03:50:20;;;;;;;2.53;1.60;;;;;;;5.13;100.00;97506.38;18298855;32;20050;-57
2023/04/07 04:00:22;;;;;;;1.93;1.20;;;;;;;5.09;100.00;97506.03;18297529;32;20092;-57
2023/04/07 04:10:24;;;;;;;3.80;1.30;;;;;;;5.09;100.00;97492.63;18297724;32;20046;-57
2023/04/07 04:20:27;;;;;;;2.50;1.77;;;;;;;5.14;100.00;97481.19;18297253;32;20370;-57
2023/04/07 04:30:30;;;;;;;2.13;1.53;;;;;;;5.12;100.00;97489.47;18296646;32;20054;-57
2023/04/07 04:40:32;;;;;;;2.87;1.50;;;;;;;5.18;100.00;97491.19;18232412;32;20106;-57
2023/04/07 04:50:35;;;;;;;3.13;1.50;;;;;;;5.25;100.00;97501.78;18233210;32;20070;-57
2023/04/07 05:00:37;;;;;;;2.93;1.10;;;;;;;5.37;100.00;97518.63;18231511;32;20046;-57
2023/04/07 05:10:40;;;;;;;1.63;1.10;;;;;;;5.42;100.00;97516.03;18231909;32;20050;-57
2023/04/07 05:20:43;;;;;;;3.00;1.63;;;;;;;5.41;100.00;97519.78;18231929;32;20118;-57
2023/04/07 05:30:47;;;;;;;4.03;1.80;;;;;;;5.65;100.00;97519.66;18231595;32;20386;-57
2023/04/07 05:40:49;;;;;;;3.63;1.63;;;;;;;5.91;100.00;97528.12;18287035;32;20047;-57
2023/04/07 05:50:52;;;;;;;5.83;2.00;;;;;;;6.02;100.00;97529.97;18293421;32;20070;-57
2023/04/07 06:00:54;;;;;;;4.73;2.60;;;;;;;6.19;100.00;97537.19;18278922;32;20098;-57
2023/04/07 06:10:57;;;;;;;3.97;2.30;;;;;;;6.42;100.00;97528.94;18292499;32;20433;-55
2023/04/07 06:20:59;;;;;;;3.10;2.00;;;;;;;6.55;100.00;97543.09;18281954;32;20362;-57
2023/04/07 06:31:01;;;;;;;1.70;1.43;;;;;;;6.74;100.00;97538.25;18302585;32;20446;-58
2023/04/07 06:41:05;;;;;;;1.63;0.90;;;;;;;6.90;100.00;97544.66;18302117;32;20421;-57
2023/04/07 06:51:07;;;;;;;1.50;0.80;;;;;;;6.90;100.00;97555.41;18288258;32;20449;-57
2023/04/07 07:01:10;;;;;;;1.53;0.80;;;;;;;6.69;100.00;97554.31;18301389;32;20114;-57
2023/04/07 07:11:12;;;;;;;1.70;0.80;;;;;;;6.58;100.00;97564.09;18286676;32;20097;-58
2023/04/07 07:21:17;;;;;;;2.10;1.20;;;;;;;6.47;100.00;97587.31;18286704;32;20050;-58
2023/04/07 07:31:19;;;;;;;1.07;0.30;;;;;;;6.42;100.00;97593.41;18298706;32;20521;-58
2023/04/07 07:41:22;;;;;;;1.27;0.20;;;;;;;6.17;100.00;97595.69;18299259;32;20146;-58
2023/04/07 07:51:26;;;;;;;0.97;0.10;;;;;;;5.97;100.00;97607.66;18299014;32;20058;-58
2023/04/07 08:01:29;;;;;;;0.00;0.00;;;;;;;5.80;100.00;97617.53;18284218;32;20069;-58
2023/04/07 08:11:32;;;;;;;0.10;0.00;;;;;;;5.66;100.00;97628.59;18297820;32;20080;-58
2023/04/07 08:21:34;;;;;;;0.30;0.10;;;;;;;5.58;100.00;97642.38;18297173;32;20062;-58
2023/04/07 08:31:37;;;;;;;0.13;0.10;;;;;;;5.57;100.00;97659.50;18297219;32;20061;-58
2023/04/07 08:41:41;;;;;;;0.47;0.10;;;;;;;5.67;100.00;97665.06;18295423;32;20042;-58
2023/04/07 08:51:48;;;;;;;0.37;0.10;;;;;;;5.74;100.00;97687.22;18282325;32;20106;-58
2023/04/07 09:01:51;;;;;;;0.00;0.00;;;;;;;5.70;100.00;97690.59;18295984;32;20094;-58
2023/04/07 09:11:54;;;;;;;0.60;0.10;;;;;;;5.76;100.00;97697.72;18281502;32;20093;-58
2023/04/07 09:21:57;;;;;;;0.33;0.10;;;;;;;5.87;100.00;97709.47;18294663;32;20107;-58
2023/04/07 09:31:59;;;;;;;0.53;0.13;;;;;;;5.91;100.00;97716.00;18293905;32;20043;-57
2023/04/07 09:42:06;;;;;;;0.77;0.10;;;;;;;6.26;100.00;97723.09;18293851;32;20490;-58
2023/04/07 09:52:09;;;;;;;0.10;0.07;;;;;;;6.62;100.00;97726.44;18293880;32;20089;-58
2023/04/07 10:02:12;;;;;;;0.27;0.10;;;;;;;6.89;100.00;97723.94;18303745;32;20085;-58
2023/04/07 10:12:15;;;;;;;0.27;0.10;;;;;;;7.30;100.00;97726.41;18303632;32;20098;-58
2023/04/07 10:22:18;;;;;;;0.00;0.00;;;;;;;7.63;100.00;97728.22;18303266;32;20055;-58
2023/04/07 10:32:21;;;;;;;1.07;0.10;;;;;;;8.14;100.00;97730.69;18288477;32;20055;-58
2023/04/07 10:42:50;;;;;;;0.27;0.10;;;;;;;8.84;100.00;97737.31;18302532;32;20351;-58
2023/04/07 10:53:11;;;;;;;0.10;0.00;;;;;;;9.17;100.00;97736.22;18299438;32;20061;-58
2023/04/07 11:03:13;;;;;;;0.33;0.20;;;;;;;9.32;100.00;97744.41;18301392;32;20054;-58
2023/04/07 11:13:17;;;;;;;0.70;0.30;;;;;;;8.93;100.00;97741.97;18286388;32;20046;-58
2023/04/07 11:23:22;;;;;;;0.13;0.10;;;;;;;8.74;100.00;97738.03;18300186;32;20382;-58
2023/04/07 11:33:31;;;;;;;0.17;0.10;;;;;;;9.16;100.00;97740.78;18299468;32;20051;-57
2023/04/07 11:43:35;;;;;;;0.00;0.00;;;;;;;9.32;100.00;97741.72;18299370;32;20378;-58
2023/04/07 11:53:38;;;;;;;0.20;0.10;;;;;;;8.85;100.00;97753.22;18298865;32;20046;-57
2023/04/07 12:03:58;;;;;;;0.10;0.10;;;;;;;8.63;100.00;97756.81;18284405;32;20068;-58
2023/04/07 12:14:05;;;;;;;0.10;0.10;;;;;;;8.86;100.00;97757.56;18297748;32;20046;-58
2023/04/07 12:24:08;;;;;;;0.40;0.20;;;;;;;9.40;100.00;97770.13;18296482;32;20057;-57
2023/04/07 12:34:10;;;;;;;0.27;0.20;;;;;;;10.03;100.00;97780.19;18282831;32;20387;-58
2023/04/07 12:44:13;;;;;;;0.43;0.20;;;;;;;10.27;100.00;97782.44;18296109;32;20366;-58
2023/04/07 12:54:16;;;;;;;0.10;0.10;;;;;;;10.25;100.00;97780.00;18282351;32;20070;-57
2023/04/07 13:04:18;;;;;;;1.97;0.90;;;;;;;10.56;100.00;97784.69;18281406;32;20062;-57
2023/04/07 13:14:21;;;;;;;0.20;0.10;;;;;;;10.52;100.00;97784.41;18294597;32;20070;-57
2023/04/07 13:24:24;;;;;;;4.00;1.40;;;;;;;10.20;90.45;97787.28;18280778;32;20062;-57
2023/04/07 13:34:26;;;;;;;0.77;0.50;;;;;;;9.61;100.00;97791.84;18302169;32;20369;-58
2023/04/07 13:44:29;;;;;;;1.53;0.60;;;;;;;9.41;100.00;97787.09;18305190;32;20076;-57
2023/04/07 13:54:32;;;;;;;1.77;0.90;;;;;;;9.65;100.00;97784.84;18304589;32;20446;-57
2023/04/07 14:04:35;;;;;;;2.27;0.80;;;;;;;9.22;100.00;97781.31;18304024;32;20092;-58
2023/04/07 14:14:37;;;;;;;0.53;0.40;;;;;;;8.69;100.00;97771.16;18303405;32;20054;-58
2023/04/07 14:24:40;;;;;;;0.83;0.17;;;;;;;8.48;100.00;97776.34;18289455;32;20051;-58
2023/04/07 14:34:42;;;;;;;2.23;0.40;;;;;;;8.54;100.00;97768.28;18302824;32;20070;-58
2023/04/07 14:44:46;;;;;;;2.30;0.30;;;;;;;8.73;100.00;97774.13;18301451;32;20066;-57
2023/04/07 14:54:48;;;;;;;0.73;0.40;;;;;;;9.01;100.00;97775.75;18301413;32;20054;-57
2023/04/07 15:04:51;;;;;;;0.53;0.30;;;;;;;9.14;100.00;97777.19;18301161;32;20102;-58
2023/04/07 15:14:54;;;;;;;0.57;0.30;;;;;;;9.60;100.00;97768.59;18300666;32;20062;-58
2023/04/07 15:24:56;;;;;;;0.97;0.40;;;;;;;9.82;100.00;97769.25;18300287;32;20057;-58
2023/04/07 15:34:59;;;;;;;0.80;0.40;;;;;;;10.26;100.00;97767.28;18285785;32;20408;-58
2023/04/07 15:45:02;;;;;;;0.83;0.30;;;;;;;10.62;100.00;97775.50;18299357;32;20376;-58
2023/04/07 15:55:05;;;;;;;0.23;0.20;;;;;;;10.58;100.00;97769.84;18284140;32;20106;-58
2023/04/07 16:05:07;;;;;;;0.67;0.30;;;;;;;10.64;100.00;97778.75;18284421;32;20058;-57
2023/04/07 16:15:11;;;;;;;0.80;0.30;;;;;;;11.94;100.00;97778.44;18297616;32;20106;-58
2023/04/07 16:25:15;;;;;;;1.67;0.57;;;;;;;12.02;97.65;97782.47;18296977;32;20145;-57
2023/04/07 16:35:18;;;;;;;0.63;0.30;;;;;;;11.43;100.00;97786.62;18296104;32;20062;-58
2023/04/07 16:45:21;;;;;;;0.93;0.40;;;;;;;10.81;100.00;97795.56;18295462;32;20058;-58
2023/04/07 16:55:25;;;;;;;0.63;0.23;;;;;;;10.20;100.00;97795.38;18295604;32;20094;-58
2023/04/07 17:05:29;;;;;;;1.17;0.20;;;;;;;9.65;100.00;97807.25;18281635;32;20393;-58
2023/04/07 17:15:36;;;;;;;0.97;0.23;;;;;;;9.27;100.00;97813.72;18295430;32;20446;-58
2023/04/07 17:25:40;;;;;;;0.30;0.20;;;;;;;8.96;100.00;97814.28;18294586;32;20091;-58
2023/04/07 17:35:46;;;;;;;0.37;0.20;;;;;;;8.64;100.00;97825.81;18294128;32;20355;-58
2023/04/07 17:45:49;;;;;;;1.57;0.40;;;;;;;8.21;100.00;97832.03;18279931;32;20095;-58
2023/04/07 17:55:52;;;;;;;1.47;0.30;;;;;;;7.72;100.00;97832.75;18293114;32;20103;-58
2023/04/07 18:05:55;;;;;;;0.40;0.30;;;;;;;7.18;100.00;97841.31;18279487;32;20070;-58
2023/04/07 18:15:58;;;;;;;0.40;0.30;;;;;;;6.68;100.00;97854.44;18294862;32;20438;-58
2023/04/07 18:26:05;;;;;;;1.03;0.50;;;;;;;6.29;100.00;97862.28;18303315;32;20184;-58
2023/04/07 18:36:08;;;;;;;1.50;0.77;;;;;;;6.01;100.00;97873.75;18302257;32;20054;-58
2023/04/07 18:46:13;;;;;;;1.33;0.50;;;;;;;5.79;100.00;97884.25;18302075;32;20081;-58
2023/04/07 18:56:16;;;;;;;1.77;0.60;;;;;;;5.57;100.00;97892.88;18302113;32;20042;-57
2023/04/07 19:06:19;;;;;;;3.03;1.53;;;;;;;5.33;100.00;97895.53;18287227;32;20046;-57
2023/04/07 19:16:25;;;;;;;1.90;1.20;;;;;;;4.99;100.00;97900.56;18300830;32;20098;-58
2023/04/07 19:26:29;;;;;;;6.13;2.80;;;;;;;4.97;100.00;97913.34;18300267;32;20050;-57
2023/04/07 19:36:31;;;;;;;3.30;2.10;;;;;;;4.98;100.00;97919.56;18286273;32;20494;-57
2023/04/07 19:46:35;;;;;;;1.47;1.20;;;;;;;4.79;100.00;97930.31;18299693;32;20062;-58
2023/04/07 19:56:38;;;;;;;3.80;1.50;;;;;;;4.46;100.00;97936.06;18298569;32;20084;-58
2023/04/07 20:06:42;;;;;;;1.87;1.17;;;;;;;4.27;100.00;97941.41;18298224;32;20085;-57
2023/04/07 20:16:45;;;;;;;3.07;1.23;;;;;;;4.08;100.00;97940.56;18297973;32;20097;-58
2023/04/07 20:26:49;;;;;;;2.40;1.70;;;;;;;3.95;100.00;97941.53;18297102;32;20058;-57
2023/04/07 20:36:53;;;;;;;6.27;2.73;;;;;;;3.97;100.00;97941.31;18296067;32;20046;-57
2023/04/07 20:46:55;;;;;;;4.30;2.50;;;;;;;4.16;100.00;97963.56;18296561;32;20094;-57
2023/04/07 20:56:59;;;;;;;3.03;1.80;;;;;;;4.33;100.00;97961.13;18296018;32;20053;-57
2023/04/07 21:07:02;;;;;;;4.13;2.53;;;;;;;4.46;100.00;97968.22;18295508;32;20094;-57
2023/04/07 21:17:05;;;;;;;3.07;2.17;;;;;;;4.57;100.00;97976.28;18295319;32;20140;-57
2023/04/07 21:27:08;;;;;;;4.10;1.93;;;;;;;4.62;100.00;97981.00;18294233;32;20077;-57
2023/04/07 21:37:11;;;;;;;6.00;3.37;;;;;;;4.70;100.00;97987.91;18293753;32;20049;-57
2023/04/07 21:47:14;;;;;;;7.10;3.90;;;;;;;4.77;100.00;97980.63;18293673;32;20104;-57
2023/04/07 21:57:17;;;;;;;4.03;2.17;;;;;;;4.83;100.00;97978.91;18302840;32;20042;-57
2023/04/07 22:07:19;;;;;;;4.60;2.80;;;;;;;4.87;100.00;97980.91;18304179;32;20088;-57
2023/04/07 22:17:22;;;;;;;4.43;3.10;;;;;;;4.90;100.00;97974.28;18303838;32;20118;-57
2023/04/07 22:27:26;;;;;;;5.13;3.13;;;;;;;4.92;100.00;97989.09;18303248;32;20136;-57
2023/04/07 22:37:29;;;;;;;5.50;2.80;;;;;;;4.97;100.00;97995.63;18288579;32;20046;-58
2023/04/07 22:47:31;;;;;;;4.63;2.30;;;;;;;5.03;100.00;97994.72;18288745;32;20076;-58
2023/04/07 22:57:34;;;;;;;3.50;2.00;;;;;;;5.08;100.00;97995.69;18302229;32;20371;-58
2023/04/07 23:07:36;;;;;;;2.77;2.03;;;;;;;5.12;100.00;97987.19;18300796;32;20073;-57
2023/04/07 23:17:39;;;;;;;1.67;1.20;;;;;;;5.13;100.00;97996.87;18300702;32;20054;-58
2023/04/07 23:27:41;;;;;;;2.77;1.60;;;;;;;5.15;100.00;97997.44;18300224;32;20090;-58
2023/04/07 23:37:44;;;;;;;5.17;1.60;;;;;;;5.13;100.00;98002.25;18299666;32;20109;-58
2023/04/07 23:47:46;;;;;;;3.60;1.90;;;;;;;5.12;100.00;98005.94;18299045;32;20065;-58
2023/04/07 23:57:49;;;;;;;2.07;1.10;;;;;;;5.08;100.00;98017.13;18285076;32;20471;-58
